Virginia — WDB2867 — position and weather

sailwx.info

Track history (hours):
 
Tides and Currents Weather Stations Pressure Air Temp Water Temp Dewpoint Dewpoint Depression Visibility Wind Speed Wind Dir Waves Ship Positions

Virginia

Owner: VIRGINIA PILOT BOAT CORPORATION, VIRGINIA BEACH, VA. More information available from US FCC via Universal Licensing System and Coast Guard Vessel Documentation Center.

Last reported at 2017-Oct-18 02:00 UTC. Time now 2017-Oct-18 02:06 UTC.
Position N 36°54' W 076°05'.

Length 17 m; draft 1.5 m.

Type: Pilot. MMSI: 366880750.

Date/timePositionNaut miles runAvg speedWind from/ knotsBaromVisibWave heightAir tempDewpointWater temp
2017-Oct-18 02:00N 36°54' W 076°05'0 0.0
2017-Oct-18 01:29N 36°54' W 076°05'0 0.0
2017-Oct-18 01:00N 36°54' W 076°05'0 0.0
2017-Oct-18 00:30N 36°54' W 076°05'0 0.0
2017-Oct-18 00:00N 36°54' W 076°05'0 0.0
2017-Oct-17 23:26N 36°54' W 076°05'0 0.0
2017-Oct-17 23:00N 36°54' W 076°05'1 2.1
2017-Oct-17 22:28N 36°55' W 076°05'1 2.4
2017-Oct-17 22:00N 36°54' W 076°05'0 0.0
2017-Oct-17 21:30N 36°54' W 076°05'0 0.0
2017-Oct-17 21:00N 36°54' W 076°05'4 6.4
2017-Oct-17 20:22N 36°57' W 076°01'411.2
2017-Oct-17 20:00N 36°54' W 076°05'0 0.0
2017-Oct-17 19:30N 36°54' W 076°05'0 0.0
2017-Oct-17 19:00N 36°54' W 076°05'0 0.0
2017-Oct-17 18:29N 36°54' W 076°05'0 0.0
2017-Oct-17 17:50N 36°54' W 076°05'0 0.0
2017-Oct-17 17:30N 36°54' W 076°05'0 0.0
2017-Oct-17 17:00N 36°54' W 076°05'0 0.0
2017-Oct-17 16:30N 36°54' W 076°05'0 0.0
2017-Oct-17 16:00N 36°54' W 076°05'0 0.0
2017-Oct-17 15:30N 36°54' W 076°05'0 0.0
2017-Oct-17 15:00N 36°54' W 076°05'0 0.0
2017-Oct-17 14:30N 36°54' W 076°05'0 0.0
2017-Oct-17 14:00N 36°54' W 076°05'0 0.0
2017-Oct-17 13:30N 36°54' W 076°05'0 0.0
2017-Oct-17 13:00N 36°54' W 076°05'0 0.0
2017-Oct-17 12:30N 36°54' W 076°05'0 0.0
2017-Oct-17 12:00N 36°54' W 076°05'0 0.0
2017-Oct-17 11:30N 36°54' W 076°05'4 3.1
2017-Oct-17 10:13N 36°57' W 076°02'2 7.6
2017-Oct-17 09:59N 36°57' W 076°04'3 2.1
2017-Oct-17 08:46N 36°54' W 076°06'411.2
2017-Oct-17 08:26N 36°57' W 076°03'4 7.3
2017-Oct-17 07:57N 36°54' W 076°05'0 0.0
2017-Oct-17 07:30N 36°54' W 076°05'0 0.0
2017-Oct-17 06:49N 36°54' W 076°05'3 1.9
2017-Oct-17 05:28N 36°56' W 076°03'3 5.0
2017-Oct-17 04:57N 36°54' W 076°05'0 0.0
2017-Oct-17 04:30N 36°54' W 076°05'0 0.0
2017-Oct-17 04:00N 36°54' W 076°05'0 0.0
2017-Oct-17 03:30N 36°54' W 076°05'0 0.0
2017-Oct-17 02:59N 36°54' W 076°05'0 0.0
2017-Oct-17 02:27N 36°54' W 076°05'0 0.0
2017-Oct-17 01:50N 36°54' W 076°05'0 0.0
2017-Oct-16 22:29N 36°54' W 076°05'0 0.0
2017-Oct-16 22:00N 36°54' W 076°05'0 0.0
2017-Oct-16 21:30N 36°54' W 076°05'0 0.0
2017-Oct-16 20:58N 36°54' W 076°05'0 0.0
2017-Oct-16 20:30N 36°54' W 076°05'0 0.0
2017-Oct-16 20:00N 36°54' W 076°05'0 0.0
2017-Oct-16 19:30N 36°54' W 076°05'0 0.0
2017-Oct-16 19:01N 36°54' W 076°05'3 5.5
2017-Oct-16 18:29N 36°56' W 076°03'2 4.4
2017-Oct-16 18:00N 36°55' W 076°05'1 2.0
2017-Oct-16 17:30N 36°54' W 076°05'0 0.0
2017-Oct-16 17:00N 36°54' W 076°05'4 7.7
2017-Oct-16 16:29N 36°57' W 076°02'4 8.1
2017-Oct-16 16:00N 36°54' W 076°05'0 0.0
2017-Oct-16 15:31N 36°54' W 076°05'0 0.0
2017-Oct-16 15:01N 36°54' W 076°05'0 0.0
2017-Oct-16 14:00N 36°54' W 076°05'0 0.0
2017-Oct-16 13:30N 36°54' W 076°05'0 0.0
2017-Oct-16 12:56N 36°54' W 076°05'4 8.2
2017-Oct-16 12:30N 36°57' W 076°02'4 7.2
2017-Oct-16 12:00N 36°54' W 076°05'0 0.0
2017-Oct-16 11:28N 36°54' W 076°05'0 0.0
2017-Oct-16 08:03N 36°54' W 076°05'0 0.1
2017-Oct-16 07:59N 36°54' W 076°05'1 0.4
2017-Oct-16 05:40N 36°55' W 076°05'1 4.1
2017-Oct-16 05:25N 36°54' W 076°05'0 0.0
2017-Oct-16 04:47N 36°54' W 076°05'0 0.0
2017-Oct-16 04:29N 36°54' W 076°05'0 0.0
2017-Oct-16 03:51N 36°54' W 076°05'0 0.0
2017-Oct-16 03:23N 36°54' W 076°05'0 0.0
2017-Oct-16 02:49N 36°54' W 076°05'0 0.0
2017-Oct-16 02:30N 36°54' W 076°05'0 0.0
2017-Oct-16 02:00N 36°54' W 076°05'0 0.0
2017-Oct-16 01:30N 36°54' W 076°05'0 0.0
2017-Oct-16 00:56N 36°54' W 076°05'0 0.0
2017-Oct-16 00:30N 36°54' W 076°05'0 0.0
2017-Oct-15 23:51N 36°54' W 076°05'0 0.0
2017-Oct-15 23:28N 36°54' W 076°05'4 7.6
2017-Oct-15 22:56N 36°57' W 076°02'3 7.5
2017-Oct-15 22:30N 36°55' W 076°05'1 2.2
2017-Oct-15 22:00N 36°54' W 076°05'0 0.0
2017-Oct-15 21:30N 36°54' W 076°05'0 0.0
2017-Oct-15 21:00N 36°54' W 076°05'0 0.0
2017-Oct-15 20:30N 36°54' W 076°05'0 0.0
2017-Oct-15 20:00N 36°54' W 076°05'0 0.0
2017-Oct-15 19:30N 36°54' W 076°05'0 1.0
2017-Oct-15 18:59N 36°55' W 076°05'510.4
2017-Oct-15 18:29N 36°56' W 075°59'511.1
2017-Oct-15 18:00N 36°54' W 076°05'4 6.8
2017-Oct-15 17:24N 36°57' W 076°01'410.8
2017-Oct-15 17:00N 36°54' W 076°05'0 0.0
2017-Oct-15 16:30N 36°54' W 076°05'0 0.0
2017-Oct-15 16:01N 36°54' W 076°05'4 7.6
2017-Oct-15 15:30N 36°57' W 076°02'4 7.8
2017-Oct-15 15:00N 36°55' W 076°06'0 0.2
2017-Oct-15 14:00N 36°54' W 076°05'0 0.0
2017-Oct-15 13:30N 36°54' W 076°05'0 0.0
2017-Oct-15 13:00N 36°54' W 076°05'0 0.0
2017-Oct-15 12:30N 36°54' W 076°05'0 0.0
2017-Oct-15 12:01N 36°54' W 076°05'0 0.0
2017-Oct-15 11:30N 36°54' W 076°05'0 0.0
2017-Oct-15 10:59N 36°54' W 076°05'0 0.0
2017-Oct-15 10:23N 36°54' W 076°05'0 0.0
2017-Oct-15 09:56N 36°54' W 076°05'0 0.0
2017-Oct-15 09:27N 36°54' W 076°05'1 1.6
2017-Oct-15 08:49N 36°55' W 076°05'1 1.0
2017-Oct-15 07:50N 36°54' W 076°05'0 0.0
2017-Oct-15 07:28N 36°54' W 076°05'0 0.0
2017-Oct-15 07:00N 36°54' W 076°05'0 0.0
2017-Oct-15 06:26N 36°54' W 076°05'0 0.0
2017-Oct-15 06:00N 36°54' W 076°05'0 0.0
2017-Oct-15 05:29N 36°54' W 076°05'0 0.0
2017-Oct-15 04:59N 36°54' W 076°05'4 6.0
2017-Oct-15 04:16N 36°57' W 076°01'413.9
2017-Oct-15 04:00N 36°55' W 076°05'1 1.3
2017-Oct-15 03:20N 36°54' W 076°05'0 0.0
2017-Oct-15 02:55N 36°54' W 076°05'0 0.0
2017-Oct-15 01:52N 36°54' W 076°05'4 2.8
2017-Oct-15 00:22N 36°57' W 076°02'1 0.6
2017-Oct-14 22:31N 36°57' W 076°00'1 7.9
2017-Oct-14 22:26N 36°57' W 076°01'1 1.2
2017-Oct-14 21:56N 36°58' W 076°02'410.0
2017-Oct-14 21:30N 36°54' W 076°05'0 0.0
2017-Oct-14 21:00N 36°54' W 076°05'0 0.0
2017-Oct-14 20:29N 36°54' W 076°05'0 0.1
2017-Oct-14 19:46N 36°54' W 076°05'613.3
2017-Oct-14 19:19N 36°56' W 075°58'619.8
2017-Oct-14 19:00N 36°55' W 076°06'4 8.8
2017-Oct-14 18:30N 36°57' W 076°01'4 8.9
2017-Oct-14 18:00N 36°54' W 076°05'0 0.0
2017-Oct-14 17:30N 36°54' W 076°05'0 0.0
2017-Oct-14 17:00N 36°54' W 076°05'0 0.0
2017-Oct-14 16:30N 36°54' W 076°05'0 0.0
2017-Oct-14 16:00N 36°54' W 076°05'0 0.0
2017-Oct-14 15:30N 36°54' W 076°05'0 0.0
2017-Oct-14 15:00N 36°54' W 076°05'0 0.0
2017-Oct-14 14:30N 36°54' W 076°05'810.5
2017-Oct-14 13:43N 36°55' W 075°55'616.3
2017-Oct-14 13:20N 36°56' W 076°02'3 9.1
2017-Oct-14 13:00N 36°54' W 076°05'4 6.7
2017-Oct-14 12:21N 36°57' W 076°01'412.6
2017-Oct-14 12:00N 36°54' W 076°05'0 0.0
2017-Oct-14 11:30N 36°54' W 076°05'0 0.0
2017-Oct-14 10:22N 36°54' W 076°05'0 0.0
2017-Oct-14 09:51N 36°54' W 076°05'0 0.0
2017-Oct-14 09:30N 36°54' W 076°05'0 0.0
2017-Oct-14 08:30N 36°54' W 076°05'0 0.0
2017-Oct-14 07:50N 36°54' W 076°05'2 1.6
2017-Oct-14 06:27N 36°56' W 076°03'2 5.1
2017-Oct-14 05:59N 36°54' W 076°05'0 0.0
2017-Oct-14 05:29N 36°54' W 076°05'0 0.0
2017-Oct-14 04:58N 36°54' W 076°05'0 0.0
2017-Oct-14 04:30N 36°54' W 076°05'0 0.0
2017-Oct-14 04:00N 36°54' W 076°05'0 0.0
2017-Oct-14 03:25N 36°54' W 076°05'0 0.0
2017-Oct-14 02:59N 36°54' W 076°05'0 0.0
2017-Oct-14 02:29N 36°54' W 076°05'0 0.0
2017-Oct-14 02:00N 36°54' W 076°05'0 0.0
2017-Oct-13 23:33N 36°54' W 076°05'0 0.0
2017-Oct-13 23:16N 36°54' W 076°05'0 0.0
2017-Oct-13 23:00N 36°54' W 076°05'4 8.1
2017-Oct-13 22:27N 36°57' W 076°01'1 2.0
2017-Oct-13 22:00N 36°57' W 076°02'4 8.1
2017-Oct-13 21:30N 36°54' W 076°05'0 0.0
2017-Oct-13 21:00N 36°54' W 076°05'2 4.3
2017-Oct-13 20:29N 36°56' W 076°04'1 1.5
2017-Oct-13 20:00N 36°56' W 076°04'4 8.2
2017-Oct-13 19:28N 36°58' W 075°60'2 3.4
2017-Oct-13 18:51N 36°56' W 076°01'411.5
2017-Oct-13 18:30N 36°55' W 076°05'0 0.9
2017-Oct-13 18:00N 36°54' W 076°05'0 0.0
2017-Oct-13 17:30N 36°54' W 076°05'0 0.0
2017-Oct-13 17:00N 36°54' W 076°05'0 0.0
2017-Oct-13 16:30N 36°54' W 076°05'0 0.0
2017-Oct-13 15:51N 36°54' W 076°05'6 6.6
2017-Oct-13 14:59N 36°58' W 075°60'4 5.5
2017-Oct-13 14:17N 36°56' W 075°56'2 6.1
2017-Oct-13 14:00N 36°56' W 075°58'611.8
2017-Oct-13 13:30N 36°54' W 076°05'0 0.0
2017-Oct-13 13:00N 36°54' W 076°05'610.0
2017-Oct-13 12:23N 36°56' W 075°58'614.6
2017-Oct-13 12:00N 36°55' W 076°05'4 7.0
2017-Oct-13 11:27N 36°57' W 076°01'4 9.4
2017-Oct-13 10:59N 36°54' W 076°05'0 0.0
2017-Oct-13 10:28N 36°54' W 076°05'0 0.0
2017-Oct-13 09:38N 36°54' W 076°05'0 0.0
2017-Oct-13 09:20N 36°54' W 076°05'0 0.0
2017-Oct-13 08:55N 36°54' W 076°05'0 0.0
2017-Oct-13 08:30N 36°54' W 076°05'710.7
2017-Oct-13 07:48N 36°56' W 075°56'511.8
2017-Oct-13 07:21N 36°56' W 076°03'3 7.0
2017-Oct-13 06:59N 36°54' W 076°05'0 0.0
2017-Oct-13 05:52N 36°54' W 076°05'0 0.0
2017-Oct-13 05:16N 36°54' W 076°05'3 4.3
2017-Oct-13 04:36N 36°57' W 076°03'312.8
2017-Oct-13 04:23N 36°55' W 076°06'0 0.6
2017-Oct-13 04:00N 36°54' W 076°05'0 0.0
2017-Oct-13 03:26N 36°54' W 076°05'0 0.0
2017-Oct-13 02:58N 36°54' W 076°05'0 0.0
2017-Oct-13 01:50N 36°54' W 076°05'3 4.7
2017-Oct-13 01:17N 36°56' W 076°03'0 0.1
2017-Oct-12 22:33N 36°57' W 076°03'113.5
2017-Oct-12 22:28N 36°56' W 076°04'2 4.4
2017-Oct-12 22:00N 36°54' W 076°05'0 0.0
2017-Oct-12 21:30N 36°54' W 076°05'0 0.0
2017-Oct-12 21:00N 36°54' W 076°05'0 0.0
2017-Oct-12 20:30N 36°54' W 076°05'0 0.0
2017-Oct-12 20:00N 36°54' W 076°05'0 0.0
2017-Oct-12 19:30N 36°54' W 076°05'0 0.0
2017-Oct-12 19:00N 36°54' W 076°05'4 6.9
2017-Oct-12 18:25N 36°56' W 076°01'4 9.7
2017-Oct-12 18:00N 36°54' W 076°05'0 0.0
2017-Oct-12 17:30N 36°54' W 076°05'0 0.0
2017-Oct-12 17:00N 36°54' W 076°05'0 0.0
2017-Oct-12 16:28N 36°54' W 076°05'6 9.3
2017-Oct-12 15:49N 36°60' W 076°02'620.0
2017-Oct-12 15:31N 36°54' W 076°06'0 0.3
2017-Oct-12 15:01N 36°54' W 076°05'0 0.0
2017-Oct-12 14:31N 36°54' W 076°05'0 0.0
2017-Oct-12 14:00N 36°54' W 076°05'0 0.0
2017-Oct-12 13:31N 36°54' W 076°05'611.2
2017-Oct-12 13:00N 36°58' W 075°60'611.3
2017-Oct-12 12:31N 36°54' W 076°05'0 0.0
2017-Oct-12 12:01N 36°54' W 076°05'0 0.0
2017-Oct-12 11:30N 36°54' W 076°05'3 5.3
2017-Oct-12 10:59N 36°57' W 076°03'3 3.3
2017-Oct-12 10:08N 36°54' W 076°05'0 0.0
2017-Oct-12 09:55N 36°54' W 076°05'0 0.0
2017-Oct-12 09:29N 36°54' W 076°05'0 0.0
2017-Oct-12 09:00N 36°54' W 076°05'1 0.7
2017-Oct-12 07:42N 36°55' W 076°05'1 4.9
2017-Oct-12 07:30N 36°54' W 076°05'0 0.0
2017-Oct-12 07:00N 36°54' W 076°05'0 0.0
2017-Oct-12 06:29N 36°54' W 076°05'0 0.0
2017-Oct-12 06:01N 36°54' W 076°05'0 0.0
2017-Oct-12 05:29N 36°54' W 076°05'0 0.0
2017-Oct-12 05:00N 36°54' W 076°05'2 1.8
2017-Oct-12 03:49N 36°56' W 076°03'2 5.9
2017-Oct-12 03:27N 36°54' W 076°05'0 0.0
2017-Oct-12 03:00N 36°54' W 076°05'0 0.0
2017-Oct-12 02:30N 36°54' W 076°05'0 0.0
2017-Oct-12 02:00N 36°54' W 076°05'0 0.0
2017-Oct-12 01:29N 36°54' W 076°05'0 0.0
2017-Oct-12 01:00N 36°54' W 076°05'0 0.0
2017-Oct-12 00:30N 36°54' W 076°05'0 0.0
2017-Oct-12 00:00N 36°54' W 076°05'0 0.0
2017-Oct-11 22:35N 36°54' W 076°05'0 0.0
2017-Oct-11 22:21N 36°54' W 076°05'1 1.7
2017-Oct-11 21:40N 36°56' W 076°05'0 1.5
2017-Oct-11 21:29N 36°55' W 076°05'1 1.9
2017-Oct-11 21:00N 36°54' W 076°05'0 0.0
2017-Oct-11 20:30N 36°54' W 076°05'0 0.0
2017-Oct-11 20:00N 36°54' W 076°05'0 0.0
2017-Oct-11 19:30N 36°54' W 076°05'0 0.0
2017-Oct-11 19:00N 36°54' W 076°05'0 0.0
2017-Oct-11 18:30N 36°54' W 076°05'0 0.0
2017-Oct-11 18:00N 36°54' W 076°05'0 0.0
2017-Oct-11 17:04N 36°54' W 076°05'0 0.0
2017-Oct-10 22:35N 36°54' W 076°05'0 0.0
2017-Oct-10 22:30N 36°54' W 076°05'0 0.0
2017-Oct-10 22:00N 36°54' W 076°05'0 0.0
2017-Oct-10 21:29N 36°54' W 076°05'0 0.0
2017-Oct-10 20:59N 36°54' W 076°05'0 0.0
2017-Oct-10 20:27N 36°54' W 076°05'0 0.0
2017-Oct-10 19:31N 36°54' W 076°05'0 0.0
2017-Oct-10 19:15N 36°54' W 076°05'0 0.0
2017-Oct-10 19:00N 36°54' W 076°05'0 0.0
2017-Oct-10 18:29N 36°54' W 076°05'0 0.0
2017-Oct-10 17:11N 36°54' W 076°05'0 0.0
2017-Oct-10 16:57N 36°54' W 076°05'0 0.0
2017-Oct-10 16:25N 36°54' W 076°05'0 0.0
2017-Oct-10 16:00N 36°54' W 076°05'0 0.0
2017-Oct-10 13:22N 36°54' W 076°05'0 0.0
2017-Oct-10 13:00N 36°54' W 076°05'0 0.3
2017-Oct-10 12:29N 36°54' W 076°06'918.4
2017-Oct-10 12:00N 36°57' W 075°55'916.0
2017-Oct-10 11:27N 36°54' W 076°05'1 0.2
2017-Oct-10 05:10N 36°56' W 076°05'1 0.2
2017-Oct-09 22:25N 36°54' W 076°05'0 0.0
2017-Oct-09 22:00N 36°54' W 076°05'4 2.2
2017-Oct-09 20:02N 36°58' W 076°02'123.1
2017-Oct-09 20:00N 36°57' W 076°03'4 6.5
2017-Oct-09 19:27N 36°54' W 076°05'4 2.9
2017-Oct-09 17:59N 36°58' W 076°02'3 0.9
2017-Oct-09 14:52N 36°57' W 076°05'2 4.8
2017-Oct-09 14:22N 36°54' W 076°05'2 1.8
2017-Oct-09 13:15N 36°56' W 076°04'721.3
2017-Oct-09 12:56N 36°57' W 075°55'817.2
2017-Oct-09 12:27N 36°55' W 076°05'0 0.0
2017-Oct-09 10:26N 36°55' W 076°05'4 0.5
2017-Oct-09 02:22N 36°57' W 076°02'0 0.4
2017-Oct-09 01:59N 36°57' W 076°02'4 3.3
2017-Oct-09 00:45N 36°54' W 076°05'4 9.6
2017-Oct-09 00:21N 36°57' W 076°02'4 1.9
2017-Oct-08 22:20N 36°54' W 076°05'0 0.0
2017-Oct-08 22:00N 36°54' W 076°05'0 0.0
2017-Oct-08 21:16N 36°54' W 076°05'1 0.3
2017-Oct-08 17:50N 36°55' W 076°05'1 2.8
2017-Oct-08 17:30N 36°54' W 076°05'0 0.0
2017-Oct-08 16:46N 36°54' W 076°05'0 0.0
2017-Oct-08 16:29N 36°54' W 076°05'0 0.0
2017-Oct-08 15:57N 36°54' W 076°05'0 0.0
2017-Oct-08 15:30N 36°54' W 076°05'0 0.0
2017-Oct-08 15:00N 36°54' W 076°05'0 0.0
2017-Oct-08 14:19N 36°54' W 076°05'0 0.9
2017-Oct-08 13:53N 36°55' W 076°05'0 1.0
2017-Oct-08 13:28N 36°54' W 076°05'811.8
2017-Oct-08 12:48N 36°56' W 075°56'412.5
2017-Oct-08 12:28N 36°56' W 076°01'4 8.9
2017-Oct-08 12:00N 36°54' W 076°05'2 0.5
2017-Oct-08 07:29N 36°56' W 076°03'  
Track history (hours):
 
Tides and Currents Weather Stations Pressure Air Temp Water Temp Dewpoint Dewpoint Depression Visibility Wind Speed Wind Dir Waves Ship Positions

Virginia

Owner: VIRGINIA PILOT BOAT CORPORATION, VIRGINIA BEACH, VA. More information available from US FCC via Universal Licensing System and Coast Guard Vessel Documentation Center.

Last reported at 2017-Oct-18 02:00 UTC. Time now 2017-Oct-18 02:06 UTC.
Position N 36°54' W 076°05'.

Length 17 m; draft 1.5 m.

Type: Pilot. MMSI: 366880750.

Date/timePositionNaut miles runAvg speedWind from/ knotsBaromVisibWave heightAir tempDewpointWater temp
2017-Oct-18 02:00N 36°54' W 076°05'0 0.0
2017-Oct-18 01:29N 36°54' W 076°05'0 0.0
2017-Oct-18 01:00N 36°54' W 076°05'0 0.0
2017-Oct-18 00:30N 36°54' W 076°05'0 0.0
2017-Oct-18 00:00N 36°54' W 076°05'0 0.0
2017-Oct-17 23:26N 36°54' W 076°05'0 0.0
2017-Oct-17 23:00N 36°54' W 076°05'1 2.1
2017-Oct-17 22:28N 36°55' W 076°05'1 2.4
2017-Oct-17 22:00N 36°54' W 076°05'0 0.0
2017-Oct-17 21:30N 36°54' W 076°05'0 0.0
2017-Oct-17 21:00N 36°54' W 076°05'4 6.4
2017-Oct-17 20:22N 36°57' W 076°01'411.2
2017-Oct-17 20:00N 36°54' W 076°05'0 0.0
2017-Oct-17 19:30N 36°54' W 076°05'0 0.0
2017-Oct-17 19:00N 36°54' W 076°05'0 0.0
2017-Oct-17 18:29N 36°54' W 076°05'0 0.0
2017-Oct-17 17:50N 36°54' W 076°05'0 0.0
2017-Oct-17 17:30N 36°54' W 076°05'0 0.0
2017-Oct-17 17:00N 36°54' W 076°05'0 0.0
2017-Oct-17 16:30N 36°54' W 076°05'0 0.0
2017-Oct-17 16:00N 36°54' W 076°05'0 0.0
2017-Oct-17 15:30N 36°54' W 076°05'0 0.0
2017-Oct-17 15:00N 36°54' W 076°05'0 0.0
2017-Oct-17 14:30N 36°54' W 076°05'0 0.0
2017-Oct-17 14:00N 36°54' W 076°05'0 0.0
2017-Oct-17 13:30N 36°54' W 076°05'0 0.0
2017-Oct-17 13:00N 36°54' W 076°05'0 0.0
2017-Oct-17 12:30N 36°54' W 076°05'0 0.0
2017-Oct-17 12:00N 36°54' W 076°05'0 0.0
2017-Oct-17 11:30N 36°54' W 076°05'4 3.1
2017-Oct-17 10:13N 36°57' W 076°02'2 7.6
2017-Oct-17 09:59N 36°57' W 076°04'3 2.1
2017-Oct-17 08:46N 36°54' W 076°06'411.2
2017-Oct-17 08:26N 36°57' W 076°03'4 7.3
2017-Oct-17 07:57N 36°54' W 076°05'0 0.0
2017-Oct-17 07:30N 36°54' W 076°05'0 0.0
2017-Oct-17 06:49N 36°54' W 076°05'3 1.9
2017-Oct-17 05:28N 36°56' W 076°03'3 5.0
2017-Oct-17 04:57N 36°54' W 076°05'0 0.0
2017-Oct-17 04:30N 36°54' W 076°05'0 0.0
2017-Oct-17 04:00N 36°54' W 076°05'0 0.0
2017-Oct-17 03:30N 36°54' W 076°05'0 0.0
2017-Oct-17 02:59N 36°54' W 076°05'0 0.0
2017-Oct-17 02:27N 36°54' W 076°05'0 0.0
2017-Oct-17 01:50N 36°54' W 076°05'0 0.0
2017-Oct-16 22:29N 36°54' W 076°05'0 0.0
2017-Oct-16 22:00N 36°54' W 076°05'0 0.0
2017-Oct-16 21:30N 36°54' W 076°05'0 0.0
2017-Oct-16 20:58N 36°54' W 076°05'0 0.0
2017-Oct-16 20:30N 36°54' W 076°05'0 0.0
2017-Oct-16 20:00N 36°54' W 076°05'0 0.0
2017-Oct-16 19:30N 36°54' W 076°05'0 0.0
2017-Oct-16 19:01N 36°54' W 076°05'3 5.5
2017-Oct-16 18:29N 36°56' W 076°03'2 4.4
2017-Oct-16 18:00N 36°55' W 076°05'1 2.0
2017-Oct-16 17:30N 36°54' W 076°05'0 0.0
2017-Oct-16 17:00N 36°54' W 076°05'4 7.7
2017-Oct-16 16:29N 36°57' W 076°02'4 8.1
2017-Oct-16 16:00N 36°54' W 076°05'0 0.0
2017-Oct-16 15:31N 36°54' W 076°05'0 0.0
2017-Oct-16 15:01N 36°54' W 076°05'0 0.0
2017-Oct-16 14:00N 36°54' W 076°05'0 0.0
2017-Oct-16 13:30N 36°54' W 076°05'0 0.0
2017-Oct-16 12:56N 36°54' W 076°05'4 8.2
2017-Oct-16 12:30N 36°57' W 076°02'4 7.2
2017-Oct-16 12:00N 36°54' W 076°05'0 0.0
2017-Oct-16 11:28N 36°54' W 076°05'0 0.0
2017-Oct-16 08:03N 36°54' W 076°05'0 0.1
2017-Oct-16 07:59N 36°54' W 076°05'1 0.4
2017-Oct-16 05:40N 36°55' W 076°05'1 4.1
2017-Oct-16 05:25N 36°54' W 076°05'0 0.0
2017-Oct-16 04:47N 36°54' W 076°05'0 0.0
2017-Oct-16 04:29N 36°54' W 076°05'0 0.0
2017-Oct-16 03:51N 36°54' W 076°05'0 0.0
2017-Oct-16 03:23N 36°54' W 076°05'0 0.0
2017-Oct-16 02:49N 36°54' W 076°05'0 0.0
2017-Oct-16 02:30N 36°54' W 076°05'0 0.0
2017-Oct-16 02:00N 36°54' W 076°05'0 0.0
2017-Oct-16 01:30N 36°54' W 076°05'0 0.0
2017-Oct-16 00:56N 36°54' W 076°05'0 0.0
2017-Oct-16 00:30N 36°54' W 076°05'0 0.0
2017-Oct-15 23:51N 36°54' W 076°05'0 0.0
2017-Oct-15 23:28N 36°54' W 076°05'4 7.6
2017-Oct-15 22:56N 36°57' W 076°02'3 7.5
2017-Oct-15 22:30N 36°55' W 076°05'1 2.2
2017-Oct-15 22:00N 36°54' W 076°05'0 0.0
2017-Oct-15 21:30N 36°54' W 076°05'0 0.0
2017-Oct-15 21:00N 36°54' W 076°05'0 0.0
2017-Oct-15 20:30N 36°54' W 076°05'0 0.0
2017-Oct-15 20:00N 36°54' W 076°05'0 0.0
2017-Oct-15 19:30N 36°54' W 076°05'0 1.0
2017-Oct-15 18:59N 36°55' W 076°05'510.4
2017-Oct-15 18:29N 36°56' W 075°59'511.1
2017-Oct-15 18:00N 36°54' W 076°05'4 6.8
2017-Oct-15 17:24N 36°57' W 076°01'410.8
2017-Oct-15 17:00N 36°54' W 076°05'0 0.0
2017-Oct-15 16:30N 36°54' W 076°05'0 0.0
2017-Oct-15 16:01N 36°54' W 076°05'4 7.6
2017-Oct-15 15:30N 36°57' W 076°02'4 7.8
2017-Oct-15 15:00N 36°55' W 076°06'0 0.2
2017-Oct-15 14:00N 36°54' W 076°05'0 0.0
2017-Oct-15 13:30N 36°54' W 076°05'0 0.0
2017-Oct-15 13:00N 36°54' W 076°05'0 0.0
2017-Oct-15 12:30N 36°54' W 076°05'0 0.0
2017-Oct-15 12:01N 36°54' W 076°05'0 0.0
2017-Oct-15 11:30N 36°54' W 076°05'0 0.0
2017-Oct-15 10:59N 36°54' W 076°05'0 0.0
2017-Oct-15 10:23N 36°54' W 076°05'0 0.0
2017-Oct-15 09:56N 36°54' W 076°05'0 0.0
2017-Oct-15 09:27N 36°54' W 076°05'1 1.6
2017-Oct-15 08:49N 36°55' W 076°05'1 1.0
2017-Oct-15 07:50N 36°54' W 076°05'0 0.0
2017-Oct-15 07:28N 36°54' W 076°05'0 0.0
2017-Oct-15 07:00N 36°54' W 076°05'0 0.0
2017-Oct-15 06:26N 36°54' W 076°05'0 0.0
2017-Oct-15 06:00N 36°54' W 076°05'0 0.0
2017-Oct-15 05:29N 36°54' W 076°05'0 0.0
2017-Oct-15 04:59N 36°54' W 076°05'4 6.0
2017-Oct-15 04:16N 36°57' W 076°01'413.9
2017-Oct-15 04:00N 36°55' W 076°05'1 1.3
2017-Oct-15 03:20N 36°54' W 076°05'0 0.0
2017-Oct-15 02:55N 36°54' W 076°05'0 0.0
2017-Oct-15 01:52N 36°54' W 076°05'4 2.8
2017-Oct-15 00:22N 36°57' W 076°02'1 0.6
2017-Oct-14 22:31N 36°57' W 076°00'1 7.9
2017-Oct-14 22:26N 36°57' W 076°01'1 1.2
2017-Oct-14 21:56N 36°58' W 076°02'410.0
2017-Oct-14 21:30N 36°54' W 076°05'0 0.0
2017-Oct-14 21:00N 36°54' W 076°05'0 0.0
2017-Oct-14 20:29N 36°54' W 076°05'0 0.1
2017-Oct-14 19:46N 36°54' W 076°05'613.3
2017-Oct-14 19:19N 36°56' W 075°58'619.8
2017-Oct-14 19:00N 36°55' W 076°06'4 8.8
2017-Oct-14 18:30N 36°57' W 076°01'4 8.9
2017-Oct-14 18:00N 36°54' W 076°05'0 0.0
2017-Oct-14 17:30N 36°54' W 076°05'0 0.0
2017-Oct-14 17:00N 36°54' W 076°05'0 0.0
2017-Oct-14 16:30N 36°54' W 076°05'0 0.0
2017-Oct-14 16:00N 36°54' W 076°05'0 0.0
2017-Oct-14 15:30N 36°54' W 076°05'0 0.0
2017-Oct-14 15:00N 36°54' W 076°05'0 0.0
2017-Oct-14 14:30N 36°54' W 076°05'810.5
2017-Oct-14 13:43N 36°55' W 075°55'616.3
2017-Oct-14 13:20N 36°56' W 076°02'3 9.1
2017-Oct-14 13:00N 36°54' W 076°05'4 6.7
2017-Oct-14 12:21N 36°57' W 076°01'412.6
2017-Oct-14 12:00N 36°54' W 076°05'0 0.0
2017-Oct-14 11:30N 36°54' W 076°05'0 0.0
2017-Oct-14 10:22N 36°54' W 076°05'0 0.0
2017-Oct-14 09:51N 36°54' W 076°05'0 0.0
2017-Oct-14 09:30N 36°54' W 076°05'0 0.0
2017-Oct-14 08:30N 36°54' W 076°05'0 0.0
2017-Oct-14 07:50N 36°54' W 076°05'2 1.6
2017-Oct-14 06:27N 36°56' W 076°03'2 5.1
2017-Oct-14 05:59N 36°54' W 076°05'0 0.0
2017-Oct-14 05:29N 36°54' W 076°05'0 0.0
2017-Oct-14 04:58N 36°54' W 076°05'0 0.0
2017-Oct-14 04:30N 36°54' W 076°05'0 0.0
2017-Oct-14 04:00N 36°54' W 076°05'0 0.0
2017-Oct-14 03:25N 36°54' W 076°05'0 0.0
2017-Oct-14 02:59N 36°54' W 076°05'0 0.0
2017-Oct-14 02:29N 36°54' W 076°05'0 0.0
2017-Oct-14 02:00N 36°54' W 076°05'0 0.0
2017-Oct-13 23:33N 36°54' W 076°05'0 0.0
2017-Oct-13 23:16N 36°54' W 076°05'0 0.0
2017-Oct-13 23:00N 36°54' W 076°05'4 8.1
2017-Oct-13 22:27N 36°57' W 076°01'1 2.0
2017-Oct-13 22:00N 36°57' W 076°02'4 8.1
2017-Oct-13 21:30N 36°54' W 076°05'0 0.0
2017-Oct-13 21:00N 36°54' W 076°05'2 4.3
2017-Oct-13 20:29N 36°56' W 076°04'1 1.5
2017-Oct-13 20:00N 36°56' W 076°04'4 8.2
2017-Oct-13 19:28N 36°58' W 075°60'2 3.4
2017-Oct-13 18:51N 36°56' W 076°01'411.5
2017-Oct-13 18:30N 36°55' W 076°05'0 0.9
2017-Oct-13 18:00N 36°54' W 076°05'0 0.0
2017-Oct-13 17:30N 36°54' W 076°05'0 0.0
2017-Oct-13 17:00N 36°54' W 076°05'0 0.0
2017-Oct-13 16:30N 36°54' W 076°05'0 0.0
2017-Oct-13 15:51N 36°54' W 076°05'6 6.6
2017-Oct-13 14:59N 36°58' W 075°60'4 5.5
2017-Oct-13 14:17N 36°56' W 075°56'2 6.1
2017-Oct-13 14:00N 36°56' W 075°58'611.8
2017-Oct-13 13:30N 36°54' W 076°05'0 0.0
2017-Oct-13 13:00N 36°54' W 076°05'610.0
2017-Oct-13 12:23N 36°56' W 075°58'614.6
2017-Oct-13 12:00N 36°55' W 076°05'4 7.0
2017-Oct-13 11:27N 36°57' W 076°01'4 9.4
2017-Oct-13 10:59N 36°54' W 076°05'0 0.0
2017-Oct-13 10:28N 36°54' W 076°05'0 0.0
2017-Oct-13 09:38N 36°54' W 076°05'0 0.0
2017-Oct-13 09:20N 36°54' W 076°05'0 0.0
2017-Oct-13 08:55N 36°54' W 076°05'0 0.0
2017-Oct-13 08:30N 36°54' W 076°05'710.7
2017-Oct-13 07:48N 36°56' W 075°56'511.8
2017-Oct-13 07:21N 36°56' W 076°03'3 7.0
2017-Oct-13 06:59N 36°54' W 076°05'0 0.0
2017-Oct-13 05:52N 36°54' W 076°05'0 0.0
2017-Oct-13 05:16N 36°54' W 076°05'3 4.3
2017-Oct-13 04:36N 36°57' W 076°03'312.8
2017-Oct-13 04:23N 36°55' W 076°06'0 0.6
2017-Oct-13 04:00N 36°54' W 076°05'0 0.0
2017-Oct-13 03:26N 36°54' W 076°05'0 0.0
2017-Oct-13 02:58N 36°54' W 076°05'0 0.0
2017-Oct-13 01:50N 36°54' W 076°05'3 4.7
2017-Oct-13 01:17N 36°56' W 076°03'0 0.1
2017-Oct-12 22:33N 36°57' W 076°03'113.5
2017-Oct-12 22:28N 36°56' W 076°04'2 4.4
2017-Oct-12 22:00N 36°54' W 076°05'0 0.0
2017-Oct-12 21:30N 36°54' W 076°05'0 0.0
2017-Oct-12 21:00N 36°54' W 076°05'0 0.0
2017-Oct-12 20:30N 36°54' W 076°05'0 0.0
2017-Oct-12 20:00N 36°54' W 076°05'0 0.0
2017-Oct-12 19:30N 36°54' W 076°05'0 0.0
2017-Oct-12 19:00N 36°54' W 076°05'4 6.9
2017-Oct-12 18:25N 36°56' W 076°01'4 9.7
2017-Oct-12 18:00N 36°54' W 076°05'0 0.0
2017-Oct-12 17:30N 36°54' W 076°05'0 0.0
2017-Oct-12 17:00N 36°54' W 076°05'0 0.0
2017-Oct-12 16:28N 36°54' W 076°05'6 9.3
2017-Oct-12 15:49N 36°60' W 076°02'620.0
2017-Oct-12 15:31N 36°54' W 076°06'0 0.3
2017-Oct-12 15:01N 36°54' W 076°05'0 0.0
2017-Oct-12 14:31N 36°54' W 076°05'0 0.0
2017-Oct-12 14:00N 36°54' W 076°05'0 0.0
2017-Oct-12 13:31N 36°54' W 076°05'611.2
2017-Oct-12 13:00N 36°58' W 075°60'611.3
2017-Oct-12 12:31N 36°54' W 076°05'0 0.0
2017-Oct-12 12:01N 36°54' W 076°05'0 0.0
2017-Oct-12 11:30N 36°54' W 076°05'3 5.3
2017-Oct-12 10:59N 36°57' W 076°03'3 3.3
2017-Oct-12 10:08N 36°54' W 076°05'0 0.0
2017-Oct-12 09:55N 36°54' W 076°05'0 0.0
2017-Oct-12 09:29N 36°54' W 076°05'0 0.0
2017-Oct-12 09:00N 36°54' W 076°05'1 0.7
2017-Oct-12 07:42N 36°55' W 076°05'1 4.9
2017-Oct-12 07:30N 36°54' W 076°05'0 0.0
2017-Oct-12 07:00N 36°54' W 076°05'0 0.0
2017-Oct-12 06:29N 36°54' W 076°05'0 0.0
2017-Oct-12 06:01N 36°54' W 076°05'0 0.0
2017-Oct-12 05:29N 36°54' W 076°05'0 0.0
2017-Oct-12 05:00N 36°54' W 076°05'2 1.8
2017-Oct-12 03:49N 36°56' W 076°03'2 5.9
2017-Oct-12 03:27N 36°54' W 076°05'0 0.0
2017-Oct-12 03:00N 36°54' W 076°05'0 0.0
2017-Oct-12 02:30N 36°54' W 076°05'0 0.0
2017-Oct-12 02:00N 36°54' W 076°05'0 0.0
2017-Oct-12 01:29N 36°54' W 076°05'0 0.0
2017-Oct-12 01:00N 36°54' W 076°05'0 0.0
2017-Oct-12 00:30N 36°54' W 076°05'0 0.0
2017-Oct-12 00:00N 36°54' W 076°05'0 0.0
2017-Oct-11 22:35N 36°54' W 076°05'0 0.0
2017-Oct-11 22:21N 36°54' W 076°05'1 1.7
2017-Oct-11 21:40N 36°56' W 076°05'0 1.5
2017-Oct-11 21:29N 36°55' W 076°05'1 1.9
2017-Oct-11 21:00N 36°54' W 076°05'0 0.0
2017-Oct-11 20:30N 36°54' W 076°05'0 0.0
2017-Oct-11 20:00N 36°54' W 076°05'0 0.0
2017-Oct-11 19:30N 36°54' W 076°05'0 0.0
2017-Oct-11 19:00N 36°54' W 076°05'0 0.0
2017-Oct-11 18:30N 36°54' W 076°05'0 0.0
2017-Oct-11 18:00N 36°54' W 076°05'0 0.0
2017-Oct-11 17:04N 36°54' W 076°05'0 0.0
2017-Oct-10 22:35N 36°54' W 076°05'0 0.0
2017-Oct-10 22:30N 36°54' W 076°05'0 0.0
2017-Oct-10 22:00N 36°54' W 076°05'0 0.0
2017-Oct-10 21:29N 36°54' W 076°05'0 0.0
2017-Oct-10 20:59N 36°54' W 076°05'0 0.0
2017-Oct-10 20:27N 36°54' W 076°05'0 0.0
2017-Oct-10 19:31N 36°54' W 076°05'0 0.0
2017-Oct-10 19:15N 36°54' W 076°05'0 0.0
2017-Oct-10 19:00N 36°54' W 076°05'0 0.0
2017-Oct-10 18:29N 36°54' W 076°05'0 0.0
2017-Oct-10 17:11N 36°54' W 076°05'0 0.0
2017-Oct-10 16:57N 36°54' W 076°05'0 0.0
2017-Oct-10 16:25N 36°54' W 076°05'0 0.0
2017-Oct-10 16:00N 36°54' W 076°05'0 0.0
2017-Oct-10 13:22N 36°54' W 076°05'0 0.0
2017-Oct-10 13:00N 36°54' W 076°05'0 0.3
2017-Oct-10 12:29N 36°54' W 076°06'918.4
2017-Oct-10 12:00N 36°57' W 075°55'916.0
2017-Oct-10 11:27N 36°54' W 076°05'1 0.2
2017-Oct-10 05:10N 36°56' W 076°05'1 0.2
2017-Oct-09 22:25N 36°54' W 076°05'0 0.0
2017-Oct-09 22:00N 36°54' W 076°05'4 2.2
2017-Oct-09 20:02N 36°58' W 076°02'123.1
2017-Oct-09 20:00N 36°57' W 076°03'4 6.5
2017-Oct-09 19:27N 36°54' W 076°05'4 2.9
2017-Oct-09 17:59N 36°58' W 076°02'3 0.9
2017-Oct-09 14:52N 36°57' W 076°05'2 4.8
2017-Oct-09 14:22N 36°54' W 076°05'2 1.8
2017-Oct-09 13:15N 36°56' W 076°04'721.3
2017-Oct-09 12:56N 36°57' W 075°55'817.2
2017-Oct-09 12:27N 36°55' W 076°05'0 0.0
2017-Oct-09 10:26N 36°55' W 076°05'4 0.5
2017-Oct-09 02:22N 36°57' W 076°02'0 0.4
2017-Oct-09 01:59N 36°57' W 076°02'4 3.3
2017-Oct-09 00:45N 36°54' W 076°05'4 9.6
2017-Oct-09 00:21N 36°57' W 076°02'4 1.9
2017-Oct-08 22:20N 36°54' W 076°05'0 0.0
2017-Oct-08 22:00N 36°54' W 076°05'0 0.0
2017-Oct-08 21:16N 36°54' W 076°05'1 0.3
2017-Oct-08 17:50N 36°55' W 076°05'1 2.8
2017-Oct-08 17:30N 36°54' W 076°05'0 0.0
2017-Oct-08 16:46N 36°54' W 076°05'0 0.0
2017-Oct-08 16:29N 36°54' W 076°05'0 0.0
2017-Oct-08 15:57N 36°54' W 076°05'0 0.0
2017-Oct-08 15:30N 36°54' W 076°05'0 0.0
2017-Oct-08 15:00N 36°54' W 076°05'0 0.0
2017-Oct-08 14:19N 36°54' W 076°05'0 0.9
2017-Oct-08 13:53N 36°55' W 076°05'0 1.0
2017-Oct-08 13:28N 36°54' W 076°05'811.8
2017-Oct-08 12:48N 36°56' W 075°56'412.5
2017-Oct-08 12:28N 36°56' W 076°01'4 8.9
2017-Oct-08 12:00N 36°54' W 076°05'2 0.5
2017-Oct-08 07:29N 36°56' W 076°03'  

Dump ship's entire track history